Terminal Aerodrome Forecast
Issued by NWS

Home | Current Version | Previous Version | Text Only | Print | Product List | Glossary On
Versions: 1 2 3 4 5 6 7 8 9 10 11 12 13 14 15 16 17 18 19 20 21
000
FTUS43 KLSX 301720
TAFUIN
TAF
KUIN 301720Z 3018/3118 06006KT P6SM SCT050
     FM310100 16006KT P6SM FEW040
     FM310700 VRB02KT 3SM BR SKC
     FM310900 VRB02KT 2SM BR SKC
     FM311400 17007KT P6SM SCT040=

USA.gov is the U.S. government's official web portal to all federal, state and local government web resources and services.